createdAt,value
2023-04-17T00:01:26.796Z,43.08
2023-04-17T00:03:57.633Z,45.95
2023-04-17T00:06:27.409Z,43.85
2023-04-17T00:08:55.722Z,45.30
2023-04-17T00:11:23.822Z,48.75
2023-04-17T00:13:52.895Z,48.15
2023-04-17T00:16:21.036Z,43.10
2023-04-17T00:18:50.537Z,46.03
2023-04-17T00:21:18.641Z,43.67
2023-04-17T00:23:46.807Z,47.97
2023-04-17T00:26:15.378Z,46.47
2023-04-17T00:28:43.480Z,48.88
2023-04-17T00:31:11.565Z,48.08
2023-04-17T00:33:39.624Z,47.55
2023-04-17T00:36:13.527Z,47.72
2023-04-17T00:38:41.625Z,45.15
2023-04-17T00:41:09.920Z,46.90
2023-04-17T00:43:39.059Z,44.38
2023-04-17T00:46:07.598Z,46.35
2023-04-17T00:48:36.885Z,48.25
2023-04-17T00:51:05.362Z,47.58
2023-04-17T00:53:35.262Z,46.72
2023-04-17T00:56:05.514Z,49.20
2023-04-17T00:58:33.900Z,45.00
2023-04-17T01:01:02.057Z,47.90
2023-04-17T01:03:32.508Z,46.95
2023-04-17T01:06:01.270Z,48.60
2023-04-17T01:08:29.473Z,45.42
2023-04-17T01:10:58.893Z,46.47
2023-04-17T01:13:27.161Z,45.25
2023-04-17T01:15:55.257Z,44.53
2023-04-17T01:18:23.308Z,46.38
2023-04-17T01:20:51.556Z,41.50
2023-04-17T01:23:19.979Z,41.72
2023-04-17T01:25:51.205Z,39.22
2023-04-17T01:28:19.289Z,39.55
2023-04-17T01:30:47.464Z,41.53
2023-04-17T01:33:15.679Z,35.78
2023-04-17T01:35:43.823Z,36.88
2023-04-17T01:38:11.919Z,38.22
2023-04-17T01:40:39.988Z,38.83
2023-04-17T01:43:09.516Z,40.13
2023-04-17T01:45:37.557Z,40.38
2023-04-17T01:48:05.800Z,41.42
2023-04-17T01:50:33.889Z,39.22
2023-04-17T01:53:01.956Z,39.65
2023-04-17T01:55:30.029Z,39.17
2023-04-17T01:57:58.087Z,40.13
2023-04-17T02:00:27.794Z,38.15
2023-04-17T02:02:56.099Z,37.45
2023-04-17T02:05:24.260Z,38.83
2023-04-17T02:07:52.445Z,37.33
2023-04-17T02:10:20.692Z,38.03
2023-04-17T02:12:48.761Z,37.22
2023-04-17T02:15:16.950Z,34.90
2023-04-17T02:17:46.439Z,35.35
2023-04-17T02:20:15.485Z,35.08
2023-04-17T02:22:43.523Z,35.15
2023-04-17T02:25:11.631Z,36.78
2023-04-17T02:27:39.717Z,35.50
2023-04-17T02:30:08.920Z,36.75
2023-04-17T02:32:36.982Z,36.67
2023-04-17T02:35:07.619Z,36.95
2023-04-17T02:37:36.199Z,35.05
2023-04-17T02:40:05.414Z,35.80
2023-04-17T02:42:33.517Z,36.70
2023-04-17T02:45:01.796Z,35.85
2023-04-17T02:47:29.976Z,37.72
2023-04-17T02:50:00.229Z,36.40
2023-04-17T02:52:31.056Z,38.28
2023-04-17T02:54:59.314Z,37.28
2023-04-17T02:57:27.660Z,35.22
2023-04-17T02:59:55.742Z,35.53
2023-04-17T03:02:24.460Z,37.53
2023-04-17T03:04:53.391Z,36.45
2023-04-17T03:07:23.601Z,38.17
2023-04-17T03:09:54.058Z,37.47
2023-04-17T03:12:22.429Z,38.35
2023-04-17T03:14:50.553Z,37.25
2023-04-17T03:17:20.568Z,37.17
2023-04-17T03:19:48.683Z,37.53
2023-04-17T03:22:16.765Z,35.72
2023-04-17T03:24:44.881Z,36.92
2023-04-17T03:27:14.301Z,37.30
2023-04-17T03:29:43.214Z,37.50
2023-04-17T03:32:11.325Z,38.35
2023-04-17T03:34:40.845Z,38.85
2023-04-17T03:37:08.985Z,40.22
2023-04-17T03:39:37.064Z,40.30
2023-04-17T03:42:06.086Z,39.70
2023-04-17T03:44:35.481Z,39.60
2023-04-17T03:47:03.571Z,39.30
2023-04-17T03:49:31.642Z,42.42
2023-04-17T03:51:59.725Z,42.97
2023-04-17T03:54:27.814Z,43.40
2023-04-17T03:56:55.892Z,43.33
2023-04-17T03:59:23.955Z,44.70
2023-04-17T04:01:54.297Z,43.08
2023-04-17T04:04:22.577Z,41.85
2023-04-17T04:06:50.981Z,44.00
2023-04-17T04:09:19.039Z,43.70
2023-04-17T04:11:47.130Z,43.47
2023-04-17T04:14:15.793Z,43.88
2023-04-17T04:16:43.919Z,44.83
2023-04-17T04:19:13.739Z,42.10
2023-04-17T04:21:43.574Z,43.88
2023-04-17T04:24:13.343Z,43.58
2023-04-17T04:26:42.253Z,44.38
2023-04-17T04:29:11.709Z,41.45
2023-04-17T04:31:40.320Z,41.45
2023-04-17T04:34:09.035Z,41.17
2023-04-17T04:36:42.014Z,42.45
2023-04-17T04:41:38.336Z,39.97
2023-04-17T04:44:06.733Z,42.88
2023-04-17T04:46:34.906Z,42.88
2023-04-17T04:49:02.995Z,41.35
2023-04-17T04:51:31.848Z,41.35
2023-04-17T04:54:02.079Z,39.90
2023-04-17T04:56:32.942Z,40.15
2023-04-17T04:59:01.208Z,41.83
2023-04-17T05:01:29.850Z,40.63
2023-04-17T05:03:58.209Z,41.17
2023-04-17T05:06:26.469Z,40.95
2023-04-17T05:08:54.577Z,42.50
2023-04-17T05:11:24.016Z,42.63
2023-04-17T05:13:52.067Z,39.65
2023-04-17T05:16:20.152Z,41.78
2023-04-17T05:18:48.464Z,40.42
2023-04-17T05:21:16.653Z,39.20
2023-04-17T05:23:44.772Z,40.67
2023-04-17T05:26:12.933Z,38.72
2023-04-17T05:28:45.081Z,38.97
2023-04-17T05:31:13.296Z,38.73
2023-04-17T05:33:41.647Z,39.70
2023-04-17T05:36:10.073Z,38.15
2023-04-17T05:38:38.135Z,41.35
2023-04-17T05:41:07.532Z,40.35
2023-04-17T05:43:35.714Z,40.35
2023-04-17T05:46:05.380Z,37.85
2023-04-17T05:48:33.535Z,37.80
2023-04-17T05:51:01.779Z,36.95
2023-04-17T05:53:31.104Z,35.20
2023-04-17T05:55:59.233Z,36.88
2023-04-17T05:58:27.271Z,36.08
2023-04-17T06:00:55.393Z,34.78
2023-04-17T06:03:25.958Z,34.70
2023-04-17T06:05:54.287Z,34.30
2023-04-17T06:08:22.391Z,34.53
2023-04-17T06:10:52.339Z,36.95
2023-04-17T06:13:20.412Z,36.88
2023-04-17T06:15:48.505Z,37.13
2023-04-17T06:18:17.600Z,35.67
2023-04-17T06:20:47.706Z,34.67
2023-04-17T06:23:15.813Z,35.92
2023-04-17T06:25:43.945Z,34.10
2023-04-17T06:28:12.056Z,33.42
2023-04-17T06:30:40.182Z,33.22
2023-04-17T06:33:08.418Z,36.10
2023-04-17T06:35:37.718Z,31.40
2023-04-17T06:38:07.206Z,31.58
2023-04-17T06:40:35.419Z,34.25
2023-04-17T06:43:03.479Z,36.15
2023-04-17T06:45:31.555Z,35.33
2023-04-17T06:47:59.620Z,35.92
2023-04-17T06:50:27.714Z,35.90
2023-04-17T06:52:55.799Z,34.30
2023-04-17T06:55:25.474Z,34.55
2023-04-17T06:57:54.251Z,33.88
2023-04-17T07:00:23.301Z,30.73
2023-04-17T07:02:52.244Z,30.42
2023-04-17T07:05:20.384Z,31.38
2023-04-17T07:07:49.191Z,30.73
2023-04-17T07:10:19.380Z,31.85
2023-04-17T07:12:48.856Z,31.20
2023-04-17T07:15:17.394Z,29.02
2023-04-17T07:17:46.432Z,28.77
2023-04-17T07:20:14.643Z,31.23
2023-04-17T07:22:43.167Z,30.83
2023-04-17T07:25:11.434Z,28.70
2023-04-17T07:27:39.607Z,23.45
2023-04-17T07:30:10.479Z,27.00
2023-04-17T07:32:38.617Z,27.23
2023-04-17T07:35:07.886Z,24.88
2023-04-17T07:37:37.083Z,25.33
2023-04-17T07:40:08.131Z,25.42
2023-04-17T07:42:36.330Z,24.85
2023-04-17T07:45:04.853Z,24.38
2023-04-17T07:47:34.450Z,23.80
2023-04-17T07:50:02.696Z,21.27
2023-04-17T07:52:31.188Z,24.98
2023-04-17T07:54:59.345Z,24.58
2023-04-17T07:57:27.467Z,23.15
2023-04-17T07:59:55.745Z,22.10
2023-04-17T08:02:23.927Z,23.17
2023-04-17T08:04:54.479Z,22.50
2023-04-17T08:07:22.804Z,24.17
2023-04-17T08:09:51.294Z,24.00
2023-04-17T08:15:19.895Z,20.65
2023-04-17T08:17:48.035Z,22.80
2023-04-17T08:20:18.489Z,23.20
2023-04-17T08:22:47.376Z,20.42
2023-04-17T08:25:15.903Z,18.88
2023-04-17T08:27:45.393Z,19.05
2023-04-17T08:30:18.592Z,17.67
2023-04-17T08:32:50.102Z,20.27
2023-04-17T08:35:20.852Z,20.63
2023-04-17T08:37:49.329Z,19.30
2023-04-17T08:40:18.921Z,21.55
2023-04-17T08:42:48.546Z,19.73
2023-04-17T08:45:21.340Z,19.77
2023-04-17T08:47:49.780Z,19.98
2023-04-17T08:50:22.160Z,18.48
2023-04-17T08:52:53.183Z,20.80
2023-04-17T08:55:23.789Z,20.73
2023-04-17T08:57:55.933Z,19.42
2023-04-17T09:00:28.731Z,18.67
2023-04-17T09:02:58.974Z,19.38
2023-04-17T09:05:33.545Z,20.38
2023-04-17T09:08:10.952Z,20.05
2023-04-17T09:10:41.062Z,20.33
2023-04-17T09:13:11.394Z,21.92
2023-04-17T09:15:40.012Z,18.52
2023-04-17T09:18:22.820Z,20.50
2023-04-17T09:20:53.706Z,17.65
2023-04-17T09:23:23.082Z,19.90
2023-04-17T09:26:08.065Z,17.88
2023-04-17T09:28:39.372Z,18.33
2023-04-17T09:31:10.245Z,16.85
2023-04-17T09:33:58.174Z,19.92
2023-04-17T09:36:30.641Z,17.45
2023-04-17T09:39:01.335Z,17.48
2023-04-17T09:41:32.566Z,13.73
2023-04-17T09:44:05.690Z,15.38
2023-04-17T09:46:35.522Z,14.38
2023-04-17T09:49:05.882Z,15.73
2023-04-17T09:51:36.168Z,13.60
2023-04-17T09:54:07.171Z,13.07
2023-04-17T09:56:37.715Z,12.88
2023-04-17T09:59:07.107Z,13.32
2023-04-17T10:01:36.911Z,14.63
2023-04-17T10:04:06.520Z,15.40
2023-04-17T10:06:38.183Z,15.50
2023-04-17T10:09:08.236Z,12.82
2023-04-17T10:11:38.318Z,13.88
2023-04-17T10:14:13.595Z,13.85
2023-04-17T10:16:44.044Z,10.48
2023-04-17T10:19:28.323Z,12.32
2023-04-17T10:22:33.111Z,13.55
2023-04-17T10:25:22.425Z,13.20
2023-04-17T10:27:55.702Z,11.68
2023-04-17T10:30:27.050Z,12.80
2023-04-17T10:33:26.260Z,12.93
2023-04-17T10:35:55.383Z,11.77
2023-04-17T10:38:38.228Z,11.60
2023-04-17T10:41:11.369Z,12.40
2023-04-17T10:43:44.365Z,12.15
2023-04-17T10:46:14.896Z,12.25
2023-04-17T10:48:49.914Z,13.80
2023-04-17T10:51:45.570Z,13.48
2023-04-17T10:54:16.045Z,14.00
2023-04-17T10:56:51.540Z,13.55
2023-04-17T10:59:23.514Z,12.90
2023-04-17T11:02:01.536Z,11.77
2023-04-17T11:04:34.088Z,11.77
2023-04-17T11:07:04.840Z,12.20
2023-04-17T11:09:38.062Z,11.32
2023-04-17T11:12:07.161Z,11.35
2023-04-17T11:14:36.325Z,11.20
2023-04-17T11:17:04.900Z,11.23
2023-04-17T11:19:34.133Z,11.23
2023-04-17T11:22:06.104Z,11.70
2023-04-17T11:24:37.154Z,8.80
2023-04-17T11:27:06.297Z,11.07
2023-04-17T11:29:35.593Z,10.23
2023-04-17T11:32:03.748Z,10.70
2023-04-17T11:34:32.148Z,10.93
2023-04-17T11:37:01.708Z,9.88
2023-04-17T11:39:31.979Z,10.10
2023-04-17T11:42:03.915Z,11.52
2023-04-17T11:44:34.572Z,11.05
2023-04-17T11:47:04.071Z,9.60
2023-04-17T11:49:34.591Z,11.45
2023-04-17T11:52:06.261Z,10.93
2023-04-17T11:54:38.797Z,9.48
2023-04-17T11:57:14.191Z,11.30
2023-04-17T11:59:44.871Z,8.18
2023-04-17T12:02:17.108Z,11.48
2023-04-17T12:04:47.604Z,9.40
2023-04-17T12:07:24.500Z,10.73
2023-04-17T12:09:57.593Z,9.13
2023-04-17T12:12:31.454Z,8.90
2023-04-17T12:15:01.984Z,9.48
2023-04-17T12:17:30.735Z,10.52
2023-04-17T12:20:02.542Z,10.05
2023-04-17T12:22:30.838Z,7.97
2023-04-17T12:24:59.184Z,8.60
2023-04-17T12:27:30.109Z,8.43
2023-04-17T12:29:58.436Z,9.40
2023-04-17T12:32:42.698Z,8.07
2023-04-17T12:35:12.309Z,7.32
2023-04-17T12:37:40.571Z,7.85
2023-04-17T12:40:10.423Z,8.00
2023-04-17T12:42:48.627Z,7.13
2023-04-17T12:45:18.557Z,7.82
2023-04-17T12:47:49.137Z,6.93
2023-04-17T12:50:17.892Z,7.15
2023-04-17T12:52:47.494Z,7.80
2023-04-17T12:55:15.905Z,7.97
2023-04-17T12:57:50.792Z,7.10
2023-04-17T13:00:23.391Z,7.88
2023-04-17T13:02:53.851Z,7.20
2023-04-17T13:05:22.296Z,8.55
2023-04-17T13:07:55.603Z,9.38
2023-04-17T13:10:29.137Z,7.93
2023-04-17T13:13:02.501Z,7.45
2023-04-17T13:15:31.207Z,4.30
2023-04-17T13:17:59.847Z,5.50
2023-04-17T13:20:29.527Z,4.97
2023-04-17T13:22:59.202Z,6.03
2023-04-17T13:25:28.264Z,6.75
2023-04-17T13:27:59.621Z,6.35
2023-04-17T13:30:27.799Z,7.00
2023-04-17T13:32:56.514Z,6.85
2023-04-17T13:35:25.568Z,6.63
2023-04-17T13:37:55.028Z,6.95
2023-04-17T13:40:25.521Z,6.38
2023-04-17T13:42:54.665Z,6.00
2023-04-17T13:45:24.964Z,6.82
2023-04-17T13:47:53.601Z,6.13
2023-04-17T13:50:22.208Z,7.43
2023-04-17T13:52:50.547Z,6.50
2023-04-17T13:55:21.583Z,7.05
2023-04-17T13:57:54.276Z,7.78
2023-04-17T14:00:27.499Z,6.13
2023-04-17T14:02:57.534Z,6.07
2023-04-17T14:05:28.315Z,7.18
2023-04-17T14:07:58.825Z,5.30
2023-04-17T14:10:27.568Z,6.47
2023-04-17T14:12:56.601Z,5.47
2023-04-17T14:15:30.013Z,5.93
2023-04-17T14:17:58.224Z,6.38
2023-04-17T14:20:26.794Z,6.50
2023-04-17T14:22:57.345Z,6.85
2023-04-17T14:25:26.729Z,6.75
2023-04-17T14:28:03.956Z,7.82
2023-04-17T14:30:34.005Z,7.72
2023-04-17T14:33:02.643Z,8.63
2023-04-17T14:35:32.849Z,7.50
2023-04-17T14:38:05.151Z,8.38
2023-04-17T14:40:34.188Z,9.10
2023-04-17T14:43:06.478Z,8.38
2023-04-17T14:45:37.517Z,8.63
2023-04-17T14:48:09.390Z,8.43
2023-04-17T14:50:38.325Z,7.45
2023-04-17T14:53:07.245Z,7.85
2023-04-17T14:55:37.130Z,8.77
2023-04-17T14:58:05.540Z,8.02
2023-04-17T15:00:35.428Z,9.50
2023-04-17T15:03:04.561Z,8.80
2023-04-17T15:05:33.889Z,8.80
2023-04-17T15:08:02.163Z,9.15
2023-04-17T15:10:37.558Z,9.10
2023-04-17T15:13:16.637Z,8.50
2023-04-17T15:15:46.361Z,7.55
2023-04-17T15:18:15.367Z,8.60
2023-04-17T15:20:46.426Z,8.38
2023-04-17T15:23:15.444Z,8.85
2023-04-17T15:25:43.700Z,8.88
2023-04-17T15:28:12.583Z,9.30
2023-04-17T15:30:41.331Z,8.75
2023-04-17T15:33:11.142Z,9.05
2023-04-17T15:35:39.981Z,7.55
2023-04-17T15:38:08.877Z,8.68
2023-04-17T15:40:36.955Z,7.80
2023-04-17T15:43:05.231Z,7.97
2023-04-17T15:45:33.462Z,8.18
2023-04-17T15:48:04.600Z,8.10
2023-04-17T15:50:35.547Z,7.95
2023-04-17T15:53:15.696Z,9.02
2023-04-17T15:55:44.161Z,7.90
2023-04-17T15:58:12.802Z,8.40
2023-04-17T16:00:41.092Z,8.27
2023-04-17T16:03:12.189Z,7.70
2023-04-17T16:05:44.311Z,8.50
2023-04-17T16:08:12.368Z,7.97
2023-04-17T16:10:41.027Z,7.85
2023-04-17T16:13:09.612Z,8.70
2023-04-17T16:15:38.529Z,9.52
2023-04-17T16:18:08.042Z,8.10
2023-04-17T16:20:36.535Z,7.47
2023-04-17T16:23:06.196Z,8.18
2023-04-17T16:25:34.288Z,8.98
2023-04-17T16:28:06.681Z,8.23
2023-04-17T16:30:36.905Z,7.85
2023-04-17T16:33:05.675Z,10.13
2023-04-17T16:35:34.385Z,8.63
2023-04-17T16:38:02.991Z,7.78
2023-04-17T16:40:34.299Z,8.50
2023-04-17T16:43:03.564Z,8.98
2023-04-17T16:45:31.882Z,8.43
2023-04-17T16:48:00.067Z,8.27
2023-04-17T16:50:29.804Z,8.05
2023-04-17T16:52:58.614Z,8.73
2023-04-17T16:55:26.749Z,8.02
2023-04-17T16:57:57.443Z,8.77
2023-04-17T17:00:27.495Z,8.45
2023-04-17T17:02:56.248Z,8.60
2023-04-17T17:05:25.970Z,8.73
2023-04-17T17:08:23.100Z,9.32
2023-04-17T17:10:54.071Z,9.70
2023-04-17T17:13:29.653Z,8.30
2023-04-17T17:16:04.268Z,9.13
2023-04-17T17:18:48.193Z,8.80
2023-04-17T17:21:24.502Z,9.65
2023-04-17T17:24:01.933Z,8.65
2023-04-17T17:26:37.373Z,9.05
2023-04-17T17:29:13.106Z,8.90
2023-04-17T17:31:44.136Z,9.52
2023-04-17T17:36:44.419Z,8.63
2023-04-17T17:39:13.153Z,8.60
2023-04-17T17:41:42.201Z,9.23
2023-04-17T17:44:15.092Z,8.95
2023-04-17T17:49:12.342Z,9.32
2023-04-17T17:51:42.340Z,8.82
2023-04-17T17:54:17.570Z,10.07
2023-04-17T17:56:50.316Z,10.45
2023-04-17T17:59:22.552Z,9.27
2023-04-17T18:01:53.526Z,11.43
2023-04-17T18:04:24.726Z,10.18
2023-04-17T18:06:55.696Z,9.68
2023-04-17T18:09:24.632Z,9.85
2023-04-17T18:11:57.411Z,8.80
2023-04-17T18:14:28.262Z,9.30
2023-04-17T18:16:57.500Z,9.95
2023-04-17T18:19:26.941Z,10.30
2023-04-17T18:21:55.662Z,9.63
2023-04-17T18:24:24.431Z,9.90
2023-04-17T18:30:38.044Z,9.93
2023-04-17T18:33:52.608Z,10.82
2023-04-17T18:37:15.593Z,9.93
2023-04-17T18:40:24.892Z,10.18
2023-04-17T18:43:22.748Z,10.90
2023-04-17T18:46:08.303Z,9.90
2023-04-17T18:48:42.073Z,9.15
2023-04-17T18:52:20.723Z,8.65
2023-04-17T18:58:46.468Z,8.25
2023-04-17T19:01:38.348Z,8.32
2023-04-17T19:04:53.877Z,9.13
2023-04-17T19:07:44.519Z,9.45
2023-04-17T19:10:40.513Z,9.38
2023-04-17T19:16:27.021Z,9.55
2023-04-17T19:18:56.714Z,9.70
2023-04-17T19:21:28.356Z,9.35
2023-04-17T19:23:57.082Z,9.82
2023-04-17T19:26:26.145Z,9.30
2023-04-17T19:28:59.030Z,9.25
2023-04-17T19:31:39.879Z,9.52
2023-04-17T19:34:20.358Z,9.85
2023-04-17T19:37:02.077Z,10.98
2023-04-17T19:39:37.953Z,9.68
2023-04-17T19:44:59.080Z,10.73
2023-04-17T19:47:36.971Z,9.98
2023-04-17T19:53:38.651Z,10.27
2023-04-17T19:56:15.387Z,11.15
2023-04-17T19:58:48.052Z,11.15
2023-04-17T20:01:20.654Z,10.60
2023-04-17T20:03:48.818Z,10.77
2023-04-17T20:06:17.057Z,11.27
2023-04-17T20:08:46.631Z,11.73
2023-04-17T20:11:17.796Z,10.20
2023-04-17T20:13:45.854Z,11.80
2023-04-17T20:16:23.978Z,11.73
2023-04-17T20:18:53.530Z,11.57
2023-04-17T20:21:22.362Z,11.88
2023-04-17T20:23:52.823Z,11.57
2023-04-17T20:26:21.213Z,12.48
2023-04-17T20:28:49.341Z,12.25
2023-04-17T20:31:17.578Z,11.10
2023-04-17T20:33:45.987Z,11.23
2023-04-17T20:36:15.013Z,11.15
2023-04-17T20:38:43.046Z,11.27
2023-04-17T20:41:13.089Z,11.40
2023-04-17T20:43:41.874Z,11.57
2023-04-17T20:46:10.069Z,11.48
2023-04-17T20:48:38.154Z,11.82
2023-04-17T20:51:06.515Z,11.45
2023-04-17T20:53:34.790Z,11.68
2023-04-17T20:56:03.343Z,12.38
2023-04-17T20:58:34.365Z,12.45
2023-04-17T21:01:02.679Z,12.88
2023-04-17T21:03:31.553Z,13.63
2023-04-17T21:06:00.137Z,11.68
2023-04-17T21:08:28.559Z,11.98
2023-04-17T21:10:57.183Z,13.45
2023-04-17T21:13:25.740Z,13.57
2023-04-17T21:15:55.879Z,14.02
2023-04-17T21:18:24.466Z,15.23
2023-04-17T21:20:53.031Z,13.50
2023-04-17T21:23:21.158Z,16.15
2023-04-17T21:25:51.823Z,14.27
2023-04-17T21:28:20.445Z,14.30
2023-04-17T21:30:48.802Z,13.80
2023-04-17T21:33:30.471Z,14.27
2023-04-17T21:35:58.817Z,15.63
2023-04-17T21:38:27.472Z,15.55
2023-04-17T21:41:27.966Z,14.50
2023-04-17T21:59:02.408Z,12.45
2023-04-17T22:02:26.665Z,12.85
2023-04-17T22:17:42.281Z,12.57
2023-04-17T23:30:38.393Z,12.15
2023-04-17T23:36:56.471Z,11.48
